createdAt,value
2017-12-16T00:00:29.523Z,996.82
2017-12-16T00:01:10.053Z,996.83
2017-12-16T00:01:50.573Z,996.87
2017-12-16T00:02:31.098Z,996.88
2017-12-16T00:03:11.608Z,996.88
2017-12-16T00:03:52.135Z,996.87
2017-12-16T00:04:32.672Z,996.94
2017-12-16T00:05:13.182Z,996.91
2017-12-16T00:05:53.715Z,996.91
2017-12-16T00:06:34.238Z,996.96
2017-12-16T00:07:14.768Z,996.95
2017-12-16T00:07:55.301Z,996.99
2017-12-16T00:08:35.832Z,996.98
2017-12-16T00:09:16.348Z,997.03
2017-12-16T00:09:56.862Z,997.02
2017-12-16T00:10:37.425Z,997.03
2017-12-16T00:11:17.939Z,997.08
2017-12-16T00:11:58.460Z,997.02
2017-12-16T00:12:38.989Z,997.06
2017-12-16T00:13:19.517Z,997.06
2017-12-16T00:14:00.031Z,997.13
2017-12-16T00:14:40.550Z,997.1
2017-12-16T00:15:21.087Z,997.1
2017-12-16T00:16:01.625Z,997.12
2017-12-16T00:16:42.139Z,997.12
2017-12-16T00:17:22.668Z,997.15
2017-12-16T00:18:03.195Z,997.18
2017-12-16T00:18:43.719Z,997.21
2017-12-16T00:19:24.253Z,997.15
2017-12-16T00:20:04.788Z,997.2
2017-12-16T00:20:45.315Z,997.18
2017-12-16T00:21:25.865Z,997.17
2017-12-16T00:22:06.391Z,997.15
2017-12-16T00:22:46.922Z,997.15
2017-12-16T00:23:27.441Z,997.16
2017-12-16T00:24:07.967Z,997.18
2017-12-16T00:24:48.488Z,997.23
2017-12-16T00:25:29.016Z,997.23
2017-12-16T00:26:09.527Z,997.22
2017-12-16T00:26:50.058Z,997.22
2017-12-16T00:27:30.583Z,997.23
2017-12-16T00:28:11.123Z,997.25
2017-12-16T00:28:51.651Z,997.21
2017-12-16T00:29:32.179Z,997.28
2017-12-16T00:30:12.710Z,997.29
2017-12-16T00:30:53.247Z,997.23
2017-12-16T00:31:33.782Z,997.26
2017-12-16T00:32:14.318Z,997.23
2017-12-16T00:32:54.841Z,997.28
2017-12-16T00:33:35.382Z,997.26
2017-12-16T00:34:15.878Z,997.29
2017-12-16T00:34:56.399Z,997.33
2017-12-16T00:35:36.953Z,997.3
2017-12-16T00:36:17.471Z,997.33
2017-12-16T00:36:58.002Z,997.32
2017-12-16T00:37:38.534Z,997.36
2017-12-16T00:38:19.069Z,997.36
2017-12-16T00:38:59.607Z,997.38
2017-12-16T00:39:40.137Z,997.35
2017-12-16T00:40:20.675Z,997.41
2017-12-16T00:41:01.208Z,997.35
2017-12-16T00:41:41.742Z,997.39
2017-12-16T00:42:22.286Z,997.39
2017-12-16T00:43:02.825Z,997.36
2017-12-16T00:43:43.347Z,997.4
2017-12-16T00:44:23.880Z,997.38
2017-12-16T00:45:04.392Z,997.37
2017-12-16T00:45:44.909Z,997.39
2017-12-16T00:46:25.439Z,997.41
2017-12-16T00:47:05.971Z,997.42
2017-12-16T00:47:46.508Z,997.43
2017-12-16T00:48:27.036Z,997.42
2017-12-16T00:49:07.565Z,997.43
2017-12-16T00:49:48.087Z,997.44
2017-12-16T00:50:28.658Z,997.47
2017-12-16T00:51:09.187Z,997.47
2017-12-16T00:51:49.718Z,997.43
2017-12-16T00:52:30.248Z,997.46
2017-12-16T00:53:10.767Z,997.5
2017-12-16T00:53:51.303Z,997.5
2017-12-16T00:54:31.835Z,997.5
2017-12-16T00:55:12.362Z,997.49
2017-12-16T00:55:52.897Z,997.45
2017-12-16T00:56:33.422Z,997.5
2017-12-16T00:57:13.989Z,997.47
2017-12-16T00:57:54.484Z,997.47
2017-12-16T00:58:35.013Z,997.45
2017-12-16T00:59:15.548Z,997.46
2017-12-16T00:59:56.084Z,997.47
2017-12-16T01:00:36.613Z,997.47
2017-12-16T01:01:17.139Z,997.45
2017-12-16T01:01:57.671Z,997.47
2017-12-16T01:02:38.192Z,997.49
2017-12-16T01:03:18.710Z,997.53
2017-12-16T01:03:59.240Z,997.51
2017-12-16T01:04:39.766Z,997.51
2017-12-16T01:05:20.311Z,997.54
2017-12-16T01:06:00.837Z,997.5
2017-12-16T01:06:41.357Z,997.53
2017-12-16T01:07:21.882Z,997.54
2017-12-16T01:08:02.413Z,997.57
2017-12-16T01:08:42.952Z,997.61
2017-12-16T01:09:23.464Z,997.6
2017-12-16T01:10:04.007Z,997.61
2017-12-16T01:10:44.525Z,997.59
2017-12-16T01:11:25.072Z,997.62
2017-12-16T01:12:05.616Z,997.64
2017-12-16T01:12:46.149Z,997.62
2017-12-16T01:13:26.671Z,997.67
2017-12-16T01:14:07.189Z,997.66
2017-12-16T01:14:47.725Z,997.73
2017-12-16T01:15:28.260Z,997.73
2017-12-16T01:16:08.776Z,997.79
2017-12-16T01:16:49.317Z,997.75
2017-12-16T01:17:29.825Z,997.76
2017-12-16T01:18:10.361Z,997.77
2017-12-16T01:18:50.890Z,997.8
2017-12-16T01:19:31.407Z,997.81
2017-12-16T01:20:11.938Z,997.82
2017-12-16T01:20:52.469Z,997.84
2017-12-16T01:21:33.010Z,997.87
2017-12-16T01:22:13.553Z,997.85
2017-12-16T01:22:54.091Z,997.84
2017-12-16T01:23:34.624Z,997.88
2017-12-16T01:24:15.201Z,997.85
2017-12-16T01:24:55.728Z,997.85
2017-12-16T01:25:36.252Z,997.84
2017-12-16T01:26:16.782Z,997.86
2017-12-16T01:26:57.316Z,997.89
2017-12-16T01:27:37.848Z,997.88
2017-12-16T01:28:18.376Z,997.95
2017-12-16T01:28:58.908Z,997.96
2017-12-16T01:29:39.433Z,997.94
2017-12-16T01:30:19.971Z,997.98
2017-12-16T01:31:00.514Z,998.01
2017-12-16T01:31:41.049Z,998.05
2017-12-16T01:32:21.579Z,998.04
2017-12-16T01:33:02.179Z,998.05
2017-12-16T01:33:42.709Z,998.02
2017-12-16T01:34:23.227Z,998.05
2017-12-16T01:35:03.763Z,998.07
2017-12-16T01:35:44.290Z,998.08
2017-12-16T01:36:24.856Z,998.07
2017-12-16T01:37:05.405Z,998.09
2017-12-16T01:37:45.928Z,998.11
2017-12-16T01:38:26.443Z,998.12
2017-12-16T01:39:06.977Z,998.16
2017-12-16T01:39:47.508Z,998.16
2017-12-16T01:40:28.034Z,998.18
2017-12-16T01:41:08.564Z,998.21
2017-12-16T01:41:49.093Z,998.17
2017-12-16T01:42:29.616Z,998.2
2017-12-16T01:43:10.146Z,998.25
2017-12-16T01:43:50.673Z,998.23
2017-12-16T01:44:31.199Z,998.21
2017-12-16T01:45:11.738Z,998.24
2017-12-16T01:45:52.256Z,998.26
2017-12-16T01:46:32.785Z,998.27
2017-12-16T01:47:13.340Z,998.26
2017-12-16T01:47:53.882Z,998.27
2017-12-16T01:48:34.418Z,998.27
2017-12-16T01:49:14.956Z,998.25
2017-12-16T01:49:55.485Z,998.26
2017-12-16T01:50:36.023Z,998.29
2017-12-16T01:51:16.551Z,998.28
2017-12-16T01:51:57.086Z,998.31
2017-12-16T01:52:37.617Z,998.29
2017-12-16T01:53:18.145Z,998.27
2017-12-16T01:53:58.674Z,998.24
2017-12-16T01:54:39.209Z,998.32
2017-12-16T01:55:19.740Z,998.29
2017-12-16T01:56:00.261Z,998.33
2017-12-16T01:56:40.902Z,998.35
2017-12-16T01:57:21.428Z,998.36
2017-12-16T01:58:01.961Z,998.39
2017-12-16T01:58:42.490Z,998.38
2017-12-16T01:59:23.021Z,998.38
2017-12-16T02:00:03.546Z,998.39
2017-12-16T02:00:44.074Z,998.41
2017-12-16T02:01:24.633Z,998.43
2017-12-16T02:02:05.164Z,998.44
2017-12-16T02:02:45.701Z,998.46
2017-12-16T02:03:26.193Z,998.49
2017-12-16T02:04:06.727Z,998.49
2017-12-16T02:04:47.249Z,998.5
2017-12-16T02:05:27.781Z,998.5
2017-12-16T02:06:08.311Z,998.49
2017-12-16T02:06:48.842Z,998.51
2017-12-16T02:07:29.376Z,998.51
2017-12-16T02:08:09.908Z,998.48
2017-12-16T02:08:50.433Z,998.49
2017-12-16T02:09:30.960Z,998.51
2017-12-16T02:10:11.488Z,998.5
2017-12-16T02:10:52.021Z,998.53
2017-12-16T02:11:32.565Z,998.52
2017-12-16T02:12:13.093Z,998.53
2017-12-16T02:12:53.605Z,998.55
2017-12-16T02:13:34.140Z,998.55
2017-12-16T02:14:14.667Z,998.58
2017-12-16T02:14:55.203Z,998.59
2017-12-16T02:15:35.736Z,998.58
2017-12-16T02:16:16.271Z,998.58
2017-12-16T02:16:56.792Z,998.61
2017-12-16T02:17:37.315Z,998.65
2017-12-16T02:18:17.860Z,998.62
2017-12-16T02:18:58.369Z,998.65
2017-12-16T02:19:38.892Z,998.67
2017-12-16T02:20:19.426Z,998.7
2017-12-16T02:20:59.952Z,998.72
2017-12-16T02:21:40.478Z,998.69
2017-12-16T02:22:20.999Z,998.7
2017-12-16T02:23:01.529Z,998.72
2017-12-16T02:23:42.047Z,998.73
2017-12-16T02:24:22.565Z,998.72
2017-12-16T02:25:03.095Z,998.76
2017-12-16T02:25:43.622Z,998.76
2017-12-16T02:26:24.145Z,998.74
2017-12-16T02:27:04.661Z,998.74
2017-12-16T02:27:45.188Z,998.75
2017-12-16T02:28:25.691Z,998.73
2017-12-16T02:29:06.208Z,998.75
2017-12-16T02:29:46.729Z,998.77
2017-12-16T02:30:27.260Z,998.76
2017-12-16T02:31:07.795Z,998.77
2017-12-16T02:31:48.320Z,998.78
2017-12-16T02:32:28.849Z,998.79
2017-12-16T02:33:09.363Z,998.8
2017-12-16T02:33:49.897Z,998.83
2017-12-16T02:34:30.424Z,998.84
2017-12-16T02:35:10.938Z,998.89
2017-12-16T02:35:51.466Z,998.85
2017-12-16T02:36:31.994Z,998.85
2017-12-16T02:37:12.520Z,998.8
2017-12-16T02:37:53.050Z,998.81
2017-12-16T02:38:33.576Z,998.88
2017-12-16T02:39:14.112Z,998.84
2017-12-16T02:39:54.657Z,998.85
2017-12-16T02:40:35.183Z,998.87
2017-12-16T02:41:15.707Z,998.8
2017-12-16T02:41:56.232Z,998.79
2017-12-16T02:42:36.758Z,998.77
2017-12-16T02:43:17.284Z,998.8
2017-12-16T02:43:57.816Z,998.78
2017-12-16T02:44:38.353Z,998.75
2017-12-16T02:45:18.889Z,998.77
2017-12-16T02:45:59.413Z,998.74
2017-12-16T02:46:39.938Z,998.74
2017-12-16T02:47:20.463Z,998.76
2017-12-16T02:48:00.985Z,998.79
2017-12-16T02:48:41.503Z,998.81
2017-12-16T02:49:22.025Z,998.79
2017-12-16T02:50:02.554Z,998.85
2017-12-16T02:50:43.087Z,998.82
2017-12-16T02:51:23.628Z,998.86
2017-12-16T02:52:04.167Z,998.85
2017-12-16T02:52:44.662Z,998.84
2017-12-16T02:53:25.195Z,998.84
2017-12-16T02:54:05.726Z,998.85
2017-12-16T02:54:46.323Z,998.88
2017-12-16T02:55:26.854Z,998.89
2017-12-16T02:56:07.374Z,998.89
2017-12-16T02:56:47.898Z,998.94
2017-12-16T02:57:28.431Z,998.96
2017-12-16T02:58:08.947Z,998.97
2017-12-16T02:58:49.502Z,998.97
2017-12-16T02:59:30.043Z,999
2017-12-16T03:00:10.563Z,998.98
2017-12-16T03:00:51.096Z,999.04
2017-12-16T03:01:31.633Z,999.03
2017-12-16T03:02:12.164Z,998.99
2017-12-16T03:02:52.700Z,999.01
2017-12-16T03:03:33.232Z,999.04
2017-12-16T03:04:13.766Z,999.02
2017-12-16T03:04:54.290Z,999.01
2017-12-16T03:05:34.818Z,998.99
2017-12-16T03:06:15.425Z,999.02
2017-12-16T03:06:55.929Z,999.02
2017-12-16T03:07:36.474Z,999.03
2017-12-16T03:08:17.006Z,999.03
2017-12-16T03:08:57.536Z,999.04
2017-12-16T03:09:38.052Z,999.04
2017-12-16T03:10:18.577Z,999.11
2017-12-16T03:10:59.180Z,999.1
2017-12-16T03:11:39.713Z,999.09
2017-12-16T03:12:20.260Z,999.06
2017-12-16T03:13:00.777Z,999.11
2017-12-16T03:13:41.309Z,999.13
2017-12-16T03:14:21.843Z,999.15
2017-12-16T03:15:02.369Z,999.12
2017-12-16T03:15:42.938Z,999.12
2017-12-16T03:16:23.409Z,999.15
2017-12-16T03:17:03.934Z,999.17
2017-12-16T03:17:44.463Z,999.19
2017-12-16T03:18:24.969Z,999.19
2017-12-16T03:19:05.507Z,999.22
2017-12-16T03:19:46.032Z,999.24
2017-12-16T03:20:26.557Z,999.25
2017-12-16T03:21:07.105Z,999.25
2017-12-16T03:21:47.635Z,999.25
2017-12-16T03:22:28.158Z,999.24
2017-12-16T03:23:08.696Z,999.26
2017-12-16T03:23:49.220Z,999.25
2017-12-16T03:24:29.767Z,999.28
2017-12-16T03:25:10.284Z,999.28
2017-12-16T03:25:50.816Z,999.3
2017-12-16T03:26:31.346Z,999.29
2017-12-16T03:27:11.868Z,999.27
2017-12-16T03:27:52.402Z,999.27
2017-12-16T03:28:32.934Z,999.26
2017-12-16T03:29:13.470Z,999.24
2017-12-16T03:29:54.000Z,999.24
2017-12-16T03:30:34.525Z,999.24
2017-12-16T03:31:15.054Z,999.27
2017-12-16T03:31:55.609Z,999.24
2017-12-16T03:32:36.115Z,999.27
2017-12-16T03:33:16.650Z,999.29
2017-12-16T03:33:57.179Z,999.31
2017-12-16T03:34:37.712Z,999.36
2017-12-16T03:35:18.238Z,999.35
2017-12-16T03:35:58.774Z,999.37
2017-12-16T03:36:39.307Z,999.35
2017-12-16T03:37:19.840Z,999.35
2017-12-16T03:38:00.364Z,999.36
2017-12-16T03:38:40.891Z,999.35
2017-12-16T03:39:21.423Z,999.35
2017-12-16T03:40:01.956Z,999.4
2017-12-16T03:40:42.498Z,999.37
2017-12-16T03:41:23.018Z,999.38
2017-12-16T03:42:03.541Z,999.41
2017-12-16T03:42:44.075Z,999.45
2017-12-16T03:43:24.608Z,999.48
2017-12-16T03:44:05.142Z,999.47
2017-12-16T03:44:45.650Z,999.47
2017-12-16T03:45:26.182Z,999.51
2017-12-16T03:46:06.713Z,999.51
2017-12-16T03:46:47.303Z,999.53
2017-12-16T03:47:27.838Z,999.57
2017-12-16T03:48:08.375Z,999.57
2017-12-16T03:48:48.928Z,999.58
2017-12-16T03:49:29.510Z,999.62
2017-12-16T03:50:10.031Z,999.59
2017-12-16T03:50:50.566Z,999.65
2017-12-16T03:51:31.096Z,999.64
2017-12-16T03:52:11.649Z,999.64
2017-12-16T03:52:52.168Z,999.66
2017-12-16T03:53:32.698Z,999.66
2017-12-16T03:54:13.212Z,999.71
2017-12-16T03:54:53.727Z,999.69
2017-12-16T03:55:34.251Z,999.71
2017-12-16T03:56:14.786Z,999.74
2017-12-16T03:56:55.323Z,999.72
2017-12-16T03:57:35.866Z,999.8
2017-12-16T03:58:16.400Z,999.8
2017-12-16T03:58:56.926Z,999.79
2017-12-16T03:59:37.459Z,999.8
2017-12-16T04:00:17.971Z,999.77
2017-12-16T04:00:58.497Z,999.81
2017-12-16T04:01:39.020Z,999.8
2017-12-16T04:02:19.536Z,999.76
2017-12-16T04:03:00.065Z,999.8
2017-12-16T04:03:40.600Z,999.79
2017-12-16T04:04:21.130Z,999.82
2017-12-16T04:05:01.651Z,999.81
2017-12-16T04:05:42.188Z,999.83
2017-12-16T04:06:22.716Z,999.82
2017-12-16T04:07:03.254Z,999.82
2017-12-16T04:07:43.768Z,999.82
2017-12-16T04:08:24.300Z,999.81
2017-12-16T04:09:04.832Z,999.84
2017-12-16T04:09:45.353Z,999.81
2017-12-16T04:10:25.876Z,999.82
2017-12-16T04:11:06.406Z,999.83
2017-12-16T04:11:46.918Z,999.85
2017-12-16T04:12:27.458Z,999.85
2017-12-16T04:13:07.973Z,999.88
2017-12-16T04:13:48.499Z,999.86
2017-12-16T04:14:29.042Z,999.86
2017-12-16T04:15:09.603Z,999.84
2017-12-16T04:15:50.153Z,999.86
2017-12-16T04:16:30.684Z,999.85
2017-12-16T04:17:11.204Z,999.85
2017-12-16T04:17:51.724Z,999.86
2017-12-16T04:18:32.255Z,999.85
2017-12-16T04:19:12.762Z,999.85
2017-12-16T04:19:53.292Z,999.86
2017-12-16T04:20:33.800Z,999.86
2017-12-16T04:21:14.328Z,999.87
2017-12-16T04:21:54.866Z,999.88
2017-12-16T04:22:35.397Z,999.84
2017-12-16T04:23:15.934Z,999.86
2017-12-16T04:23:56.436Z,999.87
2017-12-16T04:24:36.960Z,999.88
2017-12-16T04:25:17.459Z,999.85
2017-12-16T04:25:58.016Z,999.89
2017-12-16T04:26:38.552Z,999.91
2017-12-16T04:27:19.052Z,999.9
2017-12-16T04:27:59.570Z,999.92
2017-12-16T04:28:40.205Z,999.93
2017-12-16T04:29:20.731Z,999.93
2017-12-16T04:30:01.265Z,999.96
2017-12-16T04:30:41.795Z,999.93
2017-12-16T04:31:22.323Z,999.97
2017-12-16T04:32:02.851Z,999.93
2017-12-16T04:32:43.388Z,999.9
2017-12-16T04:33:23.923Z,999.96
2017-12-16T04:34:04.460Z,999.92
2017-12-16T04:34:44.982Z,999.92
2017-12-16T04:35:25.514Z,999.91
2017-12-16T04:36:06.048Z,999.9
2017-12-16T04:36:46.578Z,999.88
2017-12-16T04:37:27.102Z,999.9
2017-12-16T04:38:07.626Z,999.94
2017-12-16T04:38:48.162Z,999.92
2017-12-16T04:39:28.692Z,999.96
2017-12-16T04:40:09.229Z,999.93
2017-12-16T04:40:49.777Z,999.95
2017-12-16T04:41:30.272Z,999.96
2017-12-16T04:42:10.822Z,999.92
2017-12-16T04:42:51.400Z,999.94
2017-12-16T04:43:31.922Z,999.96
2017-12-16T04:44:12.441Z,1000
2017-12-16T04:44:52.946Z,999.95
2017-12-16T04:45:33.487Z,999.98
2017-12-16T04:46:14.002Z,999.99
2017-12-16T04:46:54.531Z,999.98
2017-12-16T04:47:35.065Z,1000.01
2017-12-16T04:48:15.591Z,1000.02
2017-12-16T04:48:56.127Z,1000.02
2017-12-16T04:49:36.633Z,1000.01
2017-12-16T04:50:17.181Z,1000.02
2017-12-16T04:50:57.716Z,1000.03
2017-12-16T04:51:38.248Z,1000.04
2017-12-16T04:52:18.784Z,1000.04
2017-12-16T04:52:59.304Z,1000.07
2017-12-16T04:53:39.846Z,1000.04
2017-12-16T04:54:20.397Z,1000.07
2017-12-16T04:55:01.174Z,1000.05
2017-12-16T04:55:41.684Z,1000.08
2017-12-16T04:56:22.447Z,1000.06
2017-12-16T04:57:03.037Z,1000.07
2017-12-16T04:57:43.540Z,1000.09
2017-12-16T04:58:24.053Z,1000.12
2017-12-16T04:59:04.642Z,1000.09
2017-12-16T04:59:45.278Z,1000.12
2017-12-16T05:00:25.886Z,1000.11
2017-12-16T05:01:06.400Z,1000.12
2017-12-16T05:01:46.990Z,1000.14
2017-12-16T05:02:27.482Z,1000.14
2017-12-16T05:03:08.004Z,1000.15
2017-12-16T05:03:48.607Z,1000.17
2017-12-16T05:04:29.121Z,1000.16
2017-12-16T05:05:09.752Z,1000.18
2017-12-16T05:05:50.276Z,1000.19
2017-12-16T05:06:30.912Z,1000.18
2017-12-16T05:07:11.435Z,1000.21
2017-12-16T05:07:52.007Z,1000.22
2017-12-16T05:08:32.520Z,1000.21
2017-12-16T05:09:13.158Z,1000.22
2017-12-16T05:09:53.688Z,1000.27
2017-12-16T05:10:34.211Z,1000.25
2017-12-16T05:11:14.741Z,1000.26
2017-12-16T05:11:55.263Z,1000.28
2017-12-16T05:12:35.798Z,1000.29
2017-12-16T05:13:16.415Z,1000.25
2017-12-16T05:13:56.951Z,1000.28
2017-12-16T05:14:37.530Z,1000.3
2017-12-16T05:15:18.078Z,1000.34
2017-12-16T05:15:58.607Z,1000.31
2017-12-16T05:16:39.196Z,1000.32
2017-12-16T05:17:19.827Z,1000.33
2017-12-16T05:18:00.653Z,1000.33
2017-12-16T05:18:41.197Z,1000.37
2017-12-16T05:19:21.727Z,1000.31
2017-12-16T05:20:02.260Z,1000.35
2017-12-16T05:20:43.028Z,1000.32
2017-12-16T05:21:23.604Z,1000.38
2017-12-16T05:22:04.130Z,1000.39
2017-12-16T05:22:44.654Z,1000.34
2017-12-16T05:23:25.179Z,1000.35
2017-12-16T05:24:05.815Z,1000.36
2017-12-16T05:24:46.344Z,1000.36
2017-12-16T05:25:26.927Z,1000.37
2017-12-16T05:26:07.533Z,1000.39
2017-12-16T05:26:48.072Z,1000.38
2017-12-16T05:27:28.607Z,1000.41
2017-12-16T05:28:09.177Z,1000.38
2017-12-16T05:28:49.709Z,1000.43
2017-12-16T05:29:30.255Z,1000.43
2017-12-16T05:30:10.768Z,1000.4
2017-12-16T05:30:51.285Z,1000.44
2017-12-16T05:31:31.798Z,1000.43
2017-12-16T05:32:12.326Z,1000.42
2017-12-16T05:32:52.952Z,1000.44
2017-12-16T05:33:33.499Z,1000.48
2017-12-16T05:34:14.115Z,1000.49
2017-12-16T05:34:54.784Z,1000.52
2017-12-16T05:35:35.292Z,1000.5
2017-12-16T05:36:15.810Z,1000.46
2017-12-16T05:36:56.323Z,1000.51
2017-12-16T05:37:36.921Z,1000.5
2017-12-16T05:38:17.450Z,1000.52
2017-12-16T05:38:58.049Z,1000.52
2017-12-16T05:39:38.769Z,1000.54
2017-12-16T05:40:19.248Z,1000.53
2017-12-16T05:40:59.869Z,1000.54
2017-12-16T05:41:40.399Z,1000.53
2017-12-16T05:42:20.937Z,1000.55
2017-12-16T05:43:01.522Z,1000.55
2017-12-16T05:43:42.059Z,1000.58
2017-12-16T05:44:22.605Z,1000.55
2017-12-16T05:45:03.249Z,1000.55
2017-12-16T05:45:43.863Z,1000.57
2017-12-16T05:46:24.437Z,1000.58
2017-12-16T05:47:05.038Z,1000.56
2017-12-16T05:47:45.624Z,1000.57
2017-12-16T05:48:26.153Z,1000.61
2017-12-16T05:49:06.735Z,1000.62
2017-12-16T05:49:47.275Z,1000.61
2017-12-16T05:50:27.793Z,1000.65
2017-12-16T05:51:08.386Z,1000.67
2017-12-16T05:51:48.977Z,1000.67
2017-12-16T05:52:29.530Z,1000.68
2017-12-16T05:53:10.067Z,1000.73
2017-12-16T05:53:50.593Z,1000.74
2017-12-16T05:54:31.112Z,1000.77
2017-12-16T05:55:11.742Z,1000.75
2017-12-16T05:55:52.279Z,1000.78
2017-12-16T05:56:32.875Z,1000.8
2017-12-16T05:57:13.443Z,1000.77
2017-12-16T05:57:54.078Z,1000.75
2017-12-16T05:58:34.606Z,1000.79
2017-12-16T05:59:15.129Z,1000.82
2017-12-16T05:59:55.654Z,1000.79
2017-12-16T06:00:36.251Z,1000.84
2017-12-16T06:01:16.779Z,1000.82
2017-12-16T06:01:57.365Z,1000.84
2017-12-16T06:02:37.895Z,1000.83
2017-12-16T06:03:18.432Z,1000.81
2017-12-16T06:03:59.120Z,1000.88
2017-12-16T06:04:40.353Z,1000.86
2017-12-16T06:05:20.889Z,1000.92
2017-12-16T06:06:01.420Z,1000.88
2017-12-16T06:06:41.955Z,1000.89
2017-12-16T06:07:22.478Z,1000.89
2017-12-16T06:08:02.994Z,1000.91
2017-12-16T06:08:43.517Z,1000.9
2017-12-16T06:09:24.042Z,1000.91
2017-12-16T06:10:04.630Z,1000.93
2017-12-16T06:10:45.155Z,1000.93
2017-12-16T06:11:25.682Z,1000.91
2017-12-16T06:12:06.341Z,1000.91
2017-12-16T06:12:46.874Z,1000.94
2017-12-16T06:13:27.406Z,1000.94
2017-12-16T06:14:07.910Z,1000.92
2017-12-16T06:14:48.415Z,1000.96
2017-12-16T06:15:28.927Z,1000.93
2017-12-16T06:16:09.443Z,1000.98
2017-12-16T06:16:49.977Z,1000.98
2017-12-16T06:17:30.608Z,1000.98
2017-12-16T06:18:11.132Z,1001
2017-12-16T06:18:51.712Z,1001.03
2017-12-16T06:19:32.213Z,1001.03
2017-12-16T06:20:12.748Z,1001.01
2017-12-16T06:20:53.280Z,1001.04
2017-12-16T06:21:33.911Z,1001.05
2017-12-16T06:22:14.422Z,1001.09
2017-12-16T06:22:54.944Z,1001.06
2017-12-16T06:23:35.495Z,1001.12
2017-12-16T06:24:16.108Z,1001.16
2017-12-16T06:24:56.632Z,1001.15
2017-12-16T06:25:37.176Z,1001.18
2017-12-16T06:26:17.708Z,1001.16
2017-12-16T06:26:58.249Z,1001.16
2017-12-16T06:27:38.784Z,1001.18
2017-12-16T06:28:19.321Z,1001.22
2017-12-16T06:28:59.822Z,1001.23
2017-12-16T06:29:40.347Z,1001.23
2017-12-16T06:30:20.879Z,1001.27
2017-12-16T06:31:01.394Z,1001.29
2017-12-16T06:31:41.955Z,1001.22
2017-12-16T06:32:22.451Z,1001.24
2017-12-16T06:33:03.077Z,1001.28
2017-12-16T06:33:43.598Z,1001.24
2017-12-16T06:34:24.127Z,1001.27
2017-12-16T06:35:04.659Z,1001.33
2017-12-16T06:35:45.197Z,1001.27
2017-12-16T06:36:25.734Z,1001.33
2017-12-16T06:37:06.328Z,1001.28
2017-12-16T06:37:47.086Z,1001.35
2017-12-16T06:38:27.685Z,1001.35
2017-12-16T06:39:08.197Z,1001.37
2017-12-16T06:39:48.730Z,1001.36
2017-12-16T06:40:29.270Z,1001.39
2017-12-16T06:41:09.803Z,1001.39
2017-12-16T06:41:50.335Z,1001.39
2017-12-16T06:42:30.860Z,1001.44
2017-12-16T06:43:11.395Z,1001.44
2017-12-16T06:43:51.941Z,1001.48
2017-12-16T06:44:32.472Z,1001.44
2017-12-16T06:45:13.008Z,1001.49
2017-12-16T06:45:53.536Z,1001.49
2017-12-16T06:46:34.047Z,1001.49
2017-12-16T06:47:14.593Z,1001.47
2017-12-16T06:47:55.132Z,1001.49
2017-12-16T06:48:35.674Z,1001.49
2017-12-16T06:49:16.210Z,1001.52
2017-12-16T06:49:56.739Z,1001.51
2017-12-16T06:50:37.254Z,1001.51
2017-12-16T06:51:17.777Z,1001.51
2017-12-16T06:51:58.302Z,1001.54
2017-12-16T06:52:38.829Z,1001.52
2017-12-16T06:53:19.358Z,1001.55
2017-12-16T06:53:59.891Z,1001.55
2017-12-16T06:54:40.425Z,1001.56
2017-12-16T06:55:20.961Z,1001.56
2017-12-16T06:56:01.477Z,1001.58
2017-12-16T06:56:42.014Z,1001.58
2017-12-16T06:57:22.543Z,1001.58
2017-12-16T06:58:03.080Z,1001.57
2017-12-16T06:58:43.611Z,1001.57
2017-12-16T06:59:24.147Z,1001.55
2017-12-16T07:00:04.701Z,1001.57
2017-12-16T07:00:45.223Z,1001.58
2017-12-16T07:01:25.756Z,1001.59
2017-12-16T07:02:06.283Z,1001.61
2017-12-16T07:02:46.822Z,1001.56
2017-12-16T07:03:27.359Z,1001.59
2017-12-16T07:04:07.892Z,1001.63
2017-12-16T07:04:48.419Z,1001.58
2017-12-16T07:05:28.924Z,1001.61
2017-12-16T07:06:09.461Z,1001.6
2017-12-16T07:06:50.031Z,1001.64
2017-12-16T07:07:30.680Z,1001.62
2017-12-16T07:08:11.230Z,1001.63
2017-12-16T07:08:51.768Z,1001.66
2017-12-16T07:09:32.294Z,1001.69
2017-12-16T07:10:12.819Z,1001.69
2017-12-16T07:10:53.347Z,1001.67
2017-12-16T07:11:33.876Z,1001.68
2017-12-16T07:12:14.407Z,1001.72
2017-12-16T07:12:54.937Z,1001.71
2017-12-16T07:13:35.467Z,1001.76
2017-12-16T07:14:15.997Z,1001.77
2017-12-16T07:14:56.531Z,1001.79
2017-12-16T07:15:37.141Z,1001.78
2017-12-16T07:16:17.824Z,1001.74
2017-12-16T07:16:58.547Z,1001.82
2017-12-16T07:17:39.225Z,1001.84
2017-12-16T07:18:19.842Z,1001.85
2017-12-16T07:19:00.365Z,1001.83
2017-12-16T07:19:40.915Z,1001.85
2017-12-16T07:20:21.440Z,1001.88
2017-12-16T07:21:01.939Z,1001.9
2017-12-16T07:21:42.468Z,1001.88
2017-12-16T07:22:22.997Z,1001.89
2017-12-16T07:23:03.527Z,1001.88
2017-12-16T07:23:44.063Z,1001.93
2017-12-16T07:24:24.587Z,1001.93
2017-12-16T07:25:05.105Z,1001.98
2017-12-16T07:25:45.642Z,1001.96
2017-12-16T07:26:26.145Z,1001.98
2017-12-16T07:27:06.668Z,1002.01
2017-12-16T07:27:47.205Z,1002.03
2017-12-16T07:28:27.718Z,1002.03
2017-12-16T07:29:08.239Z,1002.04
2017-12-16T07:29:48.745Z,1002.04
2017-12-16T07:30:29.283Z,1002.05
2017-12-16T07:31:09.790Z,1002.1
2017-12-16T07:31:50.294Z,1002.11
2017-12-16T07:32:30.846Z,1002.11
2017-12-16T07:33:11.364Z,1002.12
2017-12-16T07:33:51.916Z,1002.18
2017-12-16T07:34:32.501Z,1002.16
2017-12-16T07:35:13.030Z,1002.22
2017-12-16T07:35:53.556Z,1002.23
2017-12-16T07:36:34.063Z,1002.24
2017-12-16T07:37:14.596Z,1002.22
2017-12-16T07:37:55.124Z,1002.24
2017-12-16T07:38:35.628Z,1002.26
2017-12-16T07:39:16.148Z,1002.24
2017-12-16T07:39:56.667Z,1002.26
2017-12-16T07:40:37.185Z,1002.29
2017-12-16T07:41:17.680Z,1002.32
2017-12-16T07:41:58.190Z,1002.31
2017-12-16T07:42:38.701Z,1002.32
2017-12-16T07:43:19.216Z,1002.32
2017-12-16T07:43:59.726Z,1002.35
2017-12-16T07:44:40.241Z,1002.34
2017-12-16T07:45:20.777Z,1002.35
2017-12-16T07:46:01.274Z,1002.38
2017-12-16T07:46:41.804Z,1002.37
2017-12-16T07:47:22.325Z,1002.4
2017-12-16T07:48:02.843Z,1002.42
2017-12-16T07:48:43.381Z,1002.42
2017-12-16T07:49:23.913Z,1002.45
2017-12-16T07:50:04.436Z,1002.43
2017-12-16T07:50:44.957Z,1002.45
2017-12-16T07:51:25.486Z,1002.5
2017-12-16T07:52:06.020Z,1002.53
2017-12-16T07:52:46.561Z,1002.53
2017-12-16T07:53:27.077Z,1002.54
2017-12-16T07:54:07.599Z,1002.59
2017-12-16T07:54:48.146Z,1002.59
2017-12-16T07:55:28.668Z,1002.58
2017-12-16T07:56:09.195Z,1002.62
2017-12-16T07:56:49.726Z,1002.62
2017-12-16T07:57:30.248Z,1002.63
2017-12-16T07:58:10.771Z,1002.64
2017-12-16T07:58:51.330Z,1002.65
2017-12-16T07:59:31.867Z,1002.66
2017-12-16T08:00:12.356Z,1002.63
2017-12-16T08:00:52.861Z,1002.71
2017-12-16T08:01:33.373Z,1002.69
2017-12-16T08:02:13.885Z,1002.72
2017-12-16T08:02:54.373Z,1002.76
2017-12-16T08:03:34.886Z,1002.76
2017-12-16T08:04:15.429Z,1002.77
2017-12-16T08:04:56.005Z,1002.8
2017-12-16T08:05:36.522Z,1002.81
2017-12-16T08:06:17.049Z,1002.81
2017-12-16T08:06:57.564Z,1002.81
2017-12-16T08:07:38.074Z,1002.82
2017-12-16T08:08:18.577Z,1002.84
2017-12-16T08:08:59.103Z,1002.82
2017-12-16T08:09:39.637Z,1002.86
2017-12-16T08:10:20.157Z,1002.88
2017-12-16T08:11:00.673Z,1002.9
2017-12-16T08:11:41.204Z,1002.88
2017-12-16T08:12:21.737Z,1002.91
2017-12-16T08:13:02.257Z,1002.92
2017-12-16T08:13:42.782Z,1002.92
2017-12-16T08:14:23.327Z,1002.92
2017-12-16T08:15:03.843Z,1002.91
2017-12-16T08:15:44.387Z,1002.9
2017-12-16T08:16:24.925Z,1002.96
2017-12-16T08:17:05.483Z,1002.91
2017-12-16T08:17:45.996Z,1002.94
2017-12-16T08:18:26.513Z,1002.93
2017-12-16T08:19:07.023Z,1002.93
2017-12-16T08:19:47.536Z,1002.95
2017-12-16T08:20:28.051Z,1002.94